createdAt,value
2017-12-16T00:00:19.732Z,99975.30
2017-12-16T00:02:22.813Z,99977.58
2017-12-16T00:04:25.933Z,99987.86
2017-12-16T00:06:28.992Z,99984.75
2017-12-16T00:08:32.102Z,99986.52
2017-12-16T00:10:35.141Z,99989.31
2017-12-16T00:12:38.226Z,99987.45
2017-12-16T00:14:41.245Z,99997.41
2017-12-16T00:16:44.351Z,99999.70
2017-12-16T00:18:47.369Z,100003.33
2017-12-16T00:20:50.402Z,99995.23
2017-12-16T00:22:53.460Z,100003.33
2017-12-16T00:24:56.576Z,99999.28
2017-12-16T00:26:59.570Z,100004.81
2017-12-16T00:29:02.630Z,100006.17
2017-12-16T00:31:05.656Z,100010.73
2017-12-16T00:33:08.721Z,100012.50
2017-12-16T00:35:11.820Z,100016.55
2017-12-16T00:37:14.876Z,100022.05
2017-12-16T00:39:17.954Z,100020.28
2017-12-16T00:41:21.018Z,100017.59
2017-12-16T00:43:24.129Z,100025.59
2017-12-16T00:45:28.151Z,100025.69
2017-12-16T00:47:31.321Z,100025.27
2017-12-16T00:49:34.385Z,100018.52
2017-12-16T00:51:37.707Z,100023.92
2017-12-16T00:53:40.756Z,100025.27
2017-12-16T00:55:43.968Z,100031.19
2017-12-16T00:57:46.988Z,100032.02
2017-12-16T00:59:50.212Z,100033.05
2017-12-16T01:01:53.356Z,100041.16
2017-12-16T01:03:56.544Z,100040.64
2017-12-16T01:05:59.612Z,100043.34
2017-12-16T01:08:02.726Z,100043.34
2017-12-16T01:10:05.812Z,100043.34
2017-12-16T01:12:08.951Z,100041.70
2017-12-16T01:14:11.976Z,100050.00
2017-12-16T01:16:15.097Z,100048.88
2017-12-16T01:18:18.222Z,100052.92
2017-12-16T01:20:21.272Z,100054.66
2017-12-16T01:22:24.305Z,100055.21
2017-12-16T01:24:27.440Z,100055.21
2017-12-16T01:26:30.479Z,100057.49
2017-12-16T01:28:33.628Z,100061.55
2017-12-16T01:30:36.696Z,100061.64
2017-12-16T01:32:39.764Z,100065.17
2017-12-16T01:34:54.763Z,100074.73
2017-12-16T01:37:09.841Z,100080.13
2017-12-16T01:39:12.898Z,100080.64
2017-12-16T01:41:15.938Z,100082.93
2017-12-16T01:43:19.009Z,100083.34
2017-12-16T01:45:22.060Z,100082.93
2017-12-16T01:47:25.100Z,100091.55
2017-12-16T01:49:28.211Z,100096.56
2017-12-16T01:51:31.248Z,100095.59
2017-12-16T01:53:34.608Z,100090.20
2017-12-16T01:55:37.636Z,100099.65
2017-12-16T01:57:40.724Z,100103.70
2017-12-16T01:59:43.770Z,100105.59
2017-12-16T02:01:46.937Z,100110.58
2017-12-16T02:03:50.109Z,100112.77
2017-12-16T02:05:53.171Z,100117.75
2017-12-16T02:07:56.225Z,100124.92
2017-12-16T02:09:59.383Z,100123.16
2017-12-16T02:12:02.452Z,100125.44
2017-12-16T02:14:05.535Z,100134.38
2017-12-16T02:16:08.560Z,100130.00
2017-12-16T02:18:11.648Z,100127.72
2017-12-16T02:20:14.809Z,100133.13
2017-12-16T02:22:17.843Z,100126.37
2017-12-16T02:24:20.908Z,100136.23
2017-12-16T02:26:24.000Z,100138.94
2017-12-16T02:28:27.036Z,100138.94
2017-12-16T02:30:30.068Z,100137.17
2017-12-16T02:32:33.143Z,100134.05
2017-12-16T02:34:36.244Z,100143.50
2017-12-16T02:36:39.380Z,100140.39
2017-12-16T02:38:42.402Z,100141.83
2017-12-16T02:40:45.483Z,100142.25
2017-12-16T02:42:48.583Z,100144.95
2017-12-16T02:44:51.812Z,100143.19
2017-12-16T02:46:54.852Z,100145.89
2017-12-16T02:48:57.993Z,100140.06
2017-12-16T02:51:01.074Z,100140.58
2017-12-16T02:53:04.092Z,100145.05
2017-12-16T02:55:07.459Z,100150.03
2017-12-16T02:57:10.636Z,100158.14
2017-12-16T02:59:13.659Z,100164.47
2017-12-16T03:01:16.912Z,100162.19
2017-12-16T03:03:20.024Z,100167.17
2017-12-16T03:05:23.065Z,100168.14
2017-12-16T03:07:26.154Z,100171.64
2017-12-16T03:09:29.260Z,100174.88
2017-12-16T03:11:32.391Z,100178.80
2017-12-16T03:13:35.440Z,100175.27
2017-12-16T03:15:38.559Z,100182.02
2017-12-16T03:17:41.599Z,100182.56
2017-12-16T03:19:44.631Z,100185.56
2017-12-16T03:21:47.715Z,100191.09
2017-12-16T03:23:50.839Z,100198.77
2017-12-16T03:25:53.861Z,100200.13
2017-12-16T03:27:56.912Z,100198.36
2017-12-16T03:30:00.091Z,100199.28
2017-12-16T03:32:03.131Z,100205.63
2017-12-16T03:34:06.212Z,100206.04
2017-12-16T03:36:09.270Z,100207.80
2017-12-16T03:38:12.333Z,100209.34
2017-12-16T03:40:15.359Z,100212.89
2017-12-16T03:42:18.436Z,100211.53
2017-12-16T03:44:21.648Z,100220.57
2017-12-16T03:46:24.720Z,100220.57
2017-12-16T03:48:27.792Z,100224.11
2017-12-16T03:50:30.939Z,100230.95
2017-12-16T03:52:34.025Z,100233.66
2017-12-16T03:54:37.105Z,100235.94
2017-12-16T03:56:40.497Z,100241.75
2017-12-16T03:58:43.527Z,100237.80
2017-12-16T04:00:46.673Z,100248.61
2017-12-16T04:02:49.700Z,100244.97
2017-12-16T04:04:52.835Z,100243.20
2017-12-16T04:06:55.920Z,100248.19
2017-12-16T04:08:58.937Z,100249.95
2017-12-16T04:11:01.999Z,100248.19
2017-12-16T04:13:05.028Z,100251.72
2017-12-16T04:15:08.156Z,100250.08
2017-12-16T04:17:11.275Z,100252.78
2017-12-16T04:19:14.315Z,100251.43
2017-12-16T04:21:17.350Z,100253.30
2017-12-16T04:23:20.449Z,100252.05
2017-12-16T04:25:23.476Z,100254.65
2017-12-16T04:27:26.582Z,100258.19
2017-12-16T04:29:29.653Z,100254.65
2017-12-16T04:31:32.680Z,100261.08
2017-12-16T04:33:35.708Z,100261.08
2017-12-16T04:35:38.807Z,100263.36
2017-12-16T04:37:41.884Z,100264.20
2017-12-16T04:39:45.069Z,100265.64
2017-12-16T04:41:48.195Z,100271.88
2017-12-16T04:43:51.341Z,100277.80
2017-12-16T04:45:54.343Z,100278.72
2017-12-16T04:47:57.599Z,100274.67
2017-12-16T04:50:00.798Z,100274.80
2017-12-16T04:52:03.822Z,100282.77
2017-12-16T04:54:07.020Z,100289.52
2017-12-16T04:56:10.050Z,100289.11
2017-12-16T04:58:13.805Z,100286.95
2017-12-16T05:00:16.920Z,100287.88
2017-12-16T05:02:20.023Z,100287.75
2017-12-16T05:04:23.109Z,100288.30
2017-12-16T05:06:26.295Z,100291.52
2017-12-16T05:08:29.327Z,100291.94
2017-12-16T05:10:32.365Z,100294.22
2017-12-16T05:12:35.589Z,100291.61
2017-12-16T05:14:38.672Z,100299.20
2017-12-16T05:16:41.696Z,100300.13
2017-12-16T05:18:44.740Z,100300.13
2017-12-16T05:20:47.802Z,100302.00
2017-12-16T05:22:50.888Z,100303.77
2017-12-16T05:24:53.948Z,100309.16
2017-12-16T05:26:56.969Z,100301.16
2017-12-16T05:29:00.067Z,100309.26
2017-12-16T05:31:03.208Z,100305.63
2017-12-16T05:33:06.291Z,100311.96
2017-12-16T05:35:09.344Z,100304.79
2017-12-16T05:37:12.506Z,100315.91
2017-12-16T05:39:15.650Z,100315.17
2017-12-16T05:41:18.652Z,100320.06
2017-12-16T05:43:21.709Z,100326.39
2017-12-16T05:45:24.799Z,100325.05
2017-12-16T05:47:27.828Z,100327.84
2017-12-16T05:49:30.875Z,100325.55
2017-12-16T05:51:33.982Z,100333.66
2017-12-16T05:53:37.005Z,100341.76
2017-12-16T05:55:40.052Z,100333.14
2017-12-16T05:57:43.075Z,100342.30
2017-12-16T05:59:46.507Z,100342.69
2017-12-16T06:01:49.619Z,100353.91
2017-12-16T06:03:52.661Z,100353.10
2017-12-16T06:05:55.813Z,100357.96
2017-12-16T06:07:58.895Z,100358.89
2017-12-16T06:10:01.954Z,100360.78
2017-12-16T06:12:05.104Z,100360.23
2017-12-16T06:14:08.146Z,100362.94
2017-12-16T06:16:11.192Z,100367.12
2017-12-16T06:18:14.290Z,100367.12
2017-12-16T06:20:17.368Z,100366.70
2017-12-16T06:22:20.496Z,100362.23
2017-12-16T06:24:23.529Z,100370.75
2017-12-16T06:26:26.564Z,100378.85
2017-12-16T06:28:29.678Z,100375.73
2017-12-16T06:30:32.762Z,100382.06
2017-12-16T06:32:35.871Z,100390.07
2017-12-16T06:34:38.978Z,100393.70
2017-12-16T06:36:42.100Z,100397.42
2017-12-16T06:38:45.203Z,100401.89
2017-12-16T06:40:48.219Z,100408.55
2017-12-16T06:42:51.372Z,100408.23
2017-12-16T06:44:54.422Z,100412.70
2017-12-16T06:46:57.497Z,100415.40
2017-12-16T06:49:00.566Z,100414.56
2017-12-16T06:51:03.708Z,100412.28
2017-12-16T06:53:06.707Z,100416.23
2017-12-16T06:55:09.756Z,100414.98
2017-12-16T06:57:12.829Z,100414.14
2017-12-16T06:59:15.847Z,100427.22
2017-12-16T07:01:19.123Z,100429.92
2017-12-16T07:03:22.319Z,100427.13
2017-12-16T07:05:25.405Z,100433.87
2017-12-16T07:07:28.400Z,100437.19
2017-12-16T07:09:31.468Z,100436.25
2017-12-16T07:11:34.557Z,100448.31
2017-12-16T07:13:37.645Z,100443.42
2017-12-16T07:15:40.707Z,100446.96
2017-12-16T07:17:43.810Z,100451.52
2017-12-16T07:19:46.825Z,100453.39
2017-12-16T07:21:49.939Z,100456.92
2017-12-16T07:23:52.967Z,100464.61
2017-12-16T07:25:56.048Z,100469.08
2017-12-16T07:27:59.237Z,100469.08
2017-12-16T07:30:02.317Z,100467.85
2017-12-16T07:32:05.353Z,100480.80
2017-12-16T07:34:08.536Z,100483.51
2017-12-16T07:36:11.814Z,100482.70
2017-12-16T07:38:14.894Z,100483.63
2017-12-16T07:40:18.002Z,100494.02
2017-12-16T07:42:21.019Z,100497.55
2017-12-16T07:44:24.228Z,100501.19
2017-12-16T07:46:27.316Z,100498.48
2017-12-16T07:48:30.331Z,100502.53
2017-12-16T07:50:33.471Z,100509.70
2017-12-16T07:52:36.590Z,100519.16
2017-12-16T07:54:39.684Z,100523.72
2017-12-16T07:56:42.728Z,100525.06
2017-12-16T07:58:45.854Z,100527.77
2017-12-16T08:00:48.871Z,100533.59
2017-12-16T08:02:51.976Z,100536.70
2017-12-16T08:04:55.061Z,100541.27
2017-12-16T08:06:58.072Z,100542.11
2017-12-16T08:09:01.086Z,100551.55
2017-12-16T08:11:04.156Z,100556.41
2017-12-16T08:13:07.236Z,100558.19
2017-12-16T08:15:10.316Z,100558.70
2017-12-16T08:17:13.462Z,100560.47
2017-12-16T08:19:16.499Z,100564.52
2017-12-16T08:21:19.580Z,100569.91
2017-12-16T08:23:22.668Z,100568.14
2017-12-16T08:25:25.805Z,100576.16
2017-12-16T08:27:28.812Z,100573.16
2017-12-16T08:29:31.968Z,100577.50
2017-12-16T08:31:34.969Z,100587.05
2017-12-16T08:33:37.993Z,100588.81
2017-12-16T08:35:41.062Z,100588.01
2017-12-16T08:37:44.107Z,100589.75
2017-12-16T08:39:47.192Z,100593.28
2017-12-16T08:41:50.258Z,100595.05
2017-12-16T08:43:53.315Z,100599.20
2017-12-16T08:45:56.403Z,100606.37
2017-12-16T08:47:59.488Z,100608.65
2017-12-16T08:50:02.520Z,100609.91
2017-12-16T08:52:05.700Z,100614.47
2017-12-16T08:54:08.884Z,100614.05
2017-12-16T08:56:11.906Z,100621.22
2017-12-16T08:58:15.063Z,100620.29
2017-12-16T09:00:18.097Z,100628.39
2017-12-16T09:02:21.156Z,100629.73
2017-12-16T09:04:24.413Z,100640.66
2017-12-16T09:06:27.484Z,100644.92
2017-12-16T09:08:30.634Z,100652.19
2017-12-16T09:10:33.775Z,100658.09
2017-12-16T09:12:36.916Z,100658.42
2017-12-16T09:14:39.936Z,100658.84
2017-12-16T09:16:43.057Z,100665.59
2017-12-16T09:18:46.208Z,100664.66
2017-12-16T09:20:49.412Z,100666.85
2017-12-16T09:22:52.508Z,100675.67
2017-12-16T09:24:55.668Z,100678.49
2017-12-16T09:26:58.697Z,100677.95
2017-12-16T09:29:01.836Z,100686.05
2017-12-16T09:31:05.108Z,100689.59
2017-12-16T09:33:08.217Z,100688.66
2017-12-16T09:35:11.228Z,100688.23
2017-12-16T09:37:14.284Z,100690.44
2017-12-16T09:39:17.392Z,100693.97
2017-12-16T09:41:20.480Z,100696.25
2017-12-16T09:43:23.605Z,100698.45
2017-12-16T09:45:26.708Z,100699.88
2017-12-16T09:47:29.856Z,100698.02
2017-12-16T09:49:32.989Z,100700.63
2017-12-16T09:51:36.022Z,100703.84
2017-12-16T09:53:39.100Z,100704.27
2017-12-16T09:55:42.156Z,100700.63
2017-12-16T09:57:45.260Z,100706.45
2017-12-16T09:59:48.352Z,100705.91
2017-12-16T10:01:51.410Z,100712.28
2017-12-16T10:03:54.480Z,100717.13
2017-12-16T10:05:57.587Z,100710.80
2017-12-16T10:08:00.647Z,100714.44
2017-12-16T10:10:03.682Z,100718.91
2017-12-16T10:12:06.704Z,100717.97
2017-12-16T10:14:09.909Z,100711.22
2017-12-16T10:16:12.989Z,100713.92
2017-12-16T10:18:16.107Z,100716.53
2017-12-16T10:20:19.196Z,100717.05
2017-12-16T10:22:22.238Z,100724.64
2017-12-16T10:24:25.263Z,100726.83
2017-12-16T10:26:28.324Z,100732.23
2017-12-16T10:28:31.349Z,100728.17
2017-12-16T10:30:34.476Z,100726.83
2017-12-16T10:32:37.665Z,100729.02
2017-12-16T10:34:40.762Z,100730.88
2017-12-16T10:36:43.796Z,100733.91
2017-12-16T10:38:46.956Z,100733.06
2017-12-16T10:40:50.003Z,100732.95
2017-12-16T10:42:53.085Z,100735.13
2017-12-16T10:44:56.110Z,100732.02
2017-12-16T10:46:59.193Z,100737.84
2017-12-16T10:49:02.224Z,100737.84
2017-12-16T10:51:05.283Z,100735.55
2017-12-16T10:53:08.312Z,100735.55
2017-12-16T10:55:11.429Z,100732.44
2017-12-16T10:57:14.511Z,100735.13
2017-12-16T10:59:17.560Z,100741.80
2017-12-16T11:01:20.591Z,100745.84
2017-12-16T11:03:23.747Z,100743.56
2017-12-16T11:05:27.060Z,100744.50
2017-12-16T11:07:30.376Z,100751.67
2017-12-16T11:09:33.493Z,100748.87
2017-12-16T11:11:36.652Z,100750.65
2017-12-16T11:13:39.685Z,100752.93
2017-12-16T11:15:42.789Z,100755.12
2017-12-16T11:17:45.829Z,100762.69
2017-12-16T11:19:48.884Z,100759.17
2017-12-16T11:21:52.041Z,100762.59
2017-12-16T11:23:55.119Z,100766.22
2017-12-16T11:25:58.169Z,100767.57
2017-12-16T11:28:01.356Z,100763.52
2017-12-16T11:30:04.409Z,100762.59
2017-12-16T11:32:07.501Z,100770.69
2017-12-16T11:34:10.549Z,100775.16
2017-12-16T11:36:13.593Z,100778.38
2017-12-16T11:38:16.678Z,100785.87
2017-12-16T11:40:19.710Z,100779.22
2017-12-16T11:42:23.028Z,100780.06
2017-12-16T11:44:26.240Z,100790.44
2017-12-16T11:46:29.327Z,100790.86
2017-12-16T11:48:32.340Z,100791.70
2017-12-16T11:50:35.389Z,100791.70
2017-12-16T11:52:38.575Z,100795.75
2017-12-16T11:54:41.663Z,100795.25
2017-12-16T11:56:44.664Z,100789.00
2017-12-16T11:58:47.740Z,100789.84
2017-12-16T12:00:50.764Z,100790.27
2017-12-16T12:02:53.789Z,100795.66
2017-12-16T12:04:56.882Z,100796.08
2017-12-16T12:06:59.888Z,100789.21
2017-12-16T12:09:03.152Z,100794.02
2017-12-16T12:11:06.268Z,100792.33
2017-12-16T12:13:09.422Z,100789.63
2017-12-16T12:15:12.443Z,100795.88
2017-12-16T12:17:15.693Z,100796.30
2017-12-16T12:19:18.736Z,100803.37
2017-12-16T12:21:21.862Z,100797.05
2017-12-16T12:23:24.951Z,100800.05
2017-12-16T12:25:27.952Z,100798.19
2017-12-16T12:27:31.012Z,100795.57
2017-12-16T12:29:34.140Z,100798.39
2017-12-16T12:31:37.163Z,100799.74
2017-12-16T12:33:40.195Z,100796.08
2017-12-16T12:35:43.351Z,100800.55
2017-12-16T12:37:46.436Z,100804.52
2017-12-16T12:39:49.439Z,100810.01
2017-12-16T12:41:52.501Z,100810.42
2017-12-16T12:43:55.573Z,100807.22
2017-12-16T12:45:58.667Z,100810.34
2017-12-16T12:48:01.696Z,100815.32
2017-12-16T12:50:04.721Z,100814.39
2017-12-16T12:52:07.740Z,100815.32
2017-12-16T12:54:10.803Z,100819.70
2017-12-16T12:56:13.849Z,100815.32
2017-12-16T12:58:16.908Z,100818.44
2017-12-16T13:00:19.970Z,100821.98
2017-12-16T13:02:23.004Z,100819.80
2017-12-16T13:04:26.111Z,100817.93
2017-12-16T13:06:29.172Z,100819.80
2017-12-16T13:08:32.233Z,100825.20
2017-12-16T13:10:35.483Z,100822.08
2017-12-16T13:12:38.600Z,100818.02
2017-12-16T13:14:41.631Z,100817.93
2017-12-16T13:16:44.655Z,100820.63
2017-12-16T13:18:47.696Z,100826.03
2017-12-16T13:20:51.218Z,100826.45
2017-12-16T13:22:54.222Z,100828.73
2017-12-16T13:24:57.303Z,100830.51
2017-12-16T13:27:00.345Z,100833.13
2017-12-16T13:29:03.361Z,100834.05
2017-12-16T13:31:06.534Z,100831.86
2017-12-16T13:33:09.597Z,100830.84
2017-12-16T13:35:12.641Z,100837.59
2017-12-16T13:37:15.727Z,100839.33
2017-12-16T13:39:18.761Z,100837.59
2017-12-16T13:41:21.784Z,100848.79
2017-12-16T13:43:24.840Z,100842.88
2017-12-16T13:45:27.958Z,100849.12
2017-12-16T13:47:31.001Z,100848.70
2017-12-16T13:49:34.191Z,100855.03
2017-12-16T13:51:37.207Z,100852.23
2017-12-16T13:53:40.245Z,100853.59
2017-12-16T13:55:43.287Z,100856.72
2017-12-16T13:57:46.312Z,100858.06
2017-12-16T13:59:49.334Z,100862.12
2017-12-16T14:01:52.468Z,100866.17
2017-12-16T14:03:55.480Z,100873.34
2017-12-16T14:05:58.504Z,100867.52
2017-12-16T14:08:01.561Z,100871.15
2017-12-16T14:10:04.596Z,100878.75
2017-12-16T14:12:07.805Z,100877.61
2017-12-16T14:14:10.835Z,100874.60
2017-12-16T14:16:13.916Z,100875.45
2017-12-16T14:18:16.999Z,100877.61
2017-12-16T14:20:20.064Z,100876.67
2017-12-16T14:22:23.171Z,100887.18
2017-12-16T14:24:26.260Z,100883.01
2017-12-16T14:26:29.317Z,100888.41
2017-12-16T14:28:32.378Z,100891.66
2017-12-16T14:30:35.384Z,100897.78
2017-12-16T14:32:38.435Z,100897.78
2017-12-16T14:34:41.463Z,100903.60
2017-12-16T14:36:44.563Z,100911.80
2017-12-16T14:38:47.636Z,100903.18
2017-12-16T14:40:50.761Z,100909.94
2017-12-16T14:42:53.776Z,100913.90
2017-12-16T14:44:56.844Z,100916.27
2017-12-16T14:46:59.944Z,100911.80
2017-12-16T14:49:03.022Z,100916.18
2017-12-16T14:51:06.041Z,100922.94
2017-12-16T14:53:09.199Z,100924.70
2017-12-16T14:55:12.248Z,100926.56
2017-12-16T14:57:15.299Z,100935.18
2017-12-16T14:59:18.336Z,100946.83
2017-12-16T15:01:21.379Z,100950.97
2017-12-16T15:03:24.428Z,100949.11
2017-12-16T15:05:27.531Z,100948.17
2017-12-16T15:07:30.565Z,100954.09
2017-12-16T15:09:33.672Z,100952.23
2017-12-16T15:11:36.693Z,100953.16
2017-12-16T15:13:40.044Z,100956.70
2017-12-16T15:15:43.071Z,100958.89
2017-12-16T15:17:46.109Z,100958.89
2017-12-16T15:19:49.195Z,100963.03
2017-12-16T15:21:52.279Z,100965.73
2017-12-16T15:23:55.315Z,100971.98
2017-12-16T15:25:58.339Z,100968.44
2017-12-16T15:28:01.486Z,100976.97
2017-12-16T15:30:04.619Z,100985.08
2017-12-16T15:32:07.702Z,100985.08
2017-12-16T15:34:10.736Z,100991.41
2017-12-16T15:36:13.772Z,100990.05
2017-12-16T15:38:16.796Z,100997.73
2017-12-16T15:40:19.880Z,101000.44
2017-12-16T15:42:22.922Z,101003.14
2017-12-16T15:44:25.967Z,101000.53
2017-12-16T15:46:29.007Z,101005.94
2017-12-16T15:48:32.116Z,101005.94
2017-12-16T15:50:35.254Z,101012.38
2017-12-16T15:52:38.446Z,101019.44
2017-12-16T15:54:41.472Z,101016.31
2017-12-16T15:56:44.497Z,101018.20
2017-12-16T15:58:47.590Z,101019.14
2017-12-16T16:00:50.681Z,101025.27
2017-12-16T16:02:53.713Z,101032.14
2017-12-16T16:04:56.800Z,101034.50
2017-12-16T16:06:59.893Z,101040.33
2017-12-16T16:09:02.943Z,101038.05
2017-12-16T16:11:06.037Z,101037.72
2017-12-16T16:13:09.128Z,101040.75
2017-12-16T16:15:12.312Z,101041.68
2017-12-16T16:17:15.393Z,101034.50
2017-12-16T16:19:18.414Z,101047.59
2017-12-16T16:21:21.432Z,101055.70
2017-12-16T16:23:24.507Z,101055.27
2017-12-16T16:25:27.536Z,101057.55
2017-12-16T16:27:30.568Z,101059.84
2017-12-16T16:29:33.669Z,101070.22
2017-12-16T16:31:36.789Z,101071.99
2017-12-16T16:33:39.932Z,101069.30
2017-12-16T16:35:42.960Z,101069.30
2017-12-16T16:37:46.038Z,101072.50
2017-12-16T16:39:49.095Z,101070.31
2017-12-16T16:41:52.212Z,101073.01
2017-12-16T16:43:55.258Z,101076.13
2017-12-16T16:45:58.358Z,101080.19
2017-12-16T16:48:01.454Z,101078.02
2017-12-16T16:50:05.346Z,101087.48
2017-12-16T16:52:08.348Z,101091.11
2017-12-16T16:54:11.438Z,101093.81
2017-12-16T16:56:14.591Z,101096.09
2017-12-16T16:58:17.844Z,101092.97
2017-12-16T17:00:20.917Z,101094.32
2017-12-16T17:02:23.968Z,101104.70
2017-12-16T17:04:26.992Z,101107.41
2017-12-16T17:06:30.226Z,101105.30
2017-12-16T17:08:33.263Z,101107.48
2017-12-16T17:10:36.291Z,101107.48
2017-12-16T17:12:39.386Z,101110.70
2017-12-16T17:14:42.478Z,101114.75
2017-12-16T17:16:45.732Z,101111.55
2017-12-16T17:18:48.761Z,101112.56
2017-12-16T17:20:51.836Z,101117.45
2017-12-16T17:22:54.988Z,101121.59
2017-12-16T17:24:58.082Z,101124.30
2017-12-16T17:27:01.090Z,101126.06
2017-12-16T17:29:04.239Z,101135.09
2017-12-16T17:31:07.268Z,101138.77
2017-12-16T17:33:10.307Z,101144.67
2017-12-16T17:35:13.328Z,101141.97
2017-12-16T17:37:16.396Z,101138.00
2017-12-16T17:39:19.488Z,101139.36
2017-12-16T17:41:22.517Z,101141.55
2017-12-16T17:43:25.592Z,101146.19
2017-12-16T17:45:28.645Z,101151.59
2017-12-16T17:47:31.668Z,101158.34
2017-12-16T17:49:34.745Z,101156.70
2017-12-16T17:51:37.816Z,101153.57
2017-12-16T17:53:40.946Z,101164.88
2017-12-16T17:55:43.963Z,101165.73
2017-12-16T17:57:47.080Z,101167.50
2017-12-16T17:59:50.201Z,101162.19
2017-12-16T18:01:53.302Z,101160.83
2017-12-16T18:03:56.321Z,101168.94
2017-12-16T18:05:59.392Z,101168.94
2017-12-16T18:08:02.487Z,101174.34
2017-12-16T18:10:05.524Z,101176.11
2017-12-16T18:12:08.648Z,101178.39
2017-12-16T18:14:11.769Z,101179.83
2017-12-16T18:16:14.812Z,101180.75
2017-12-16T18:18:17.937Z,101191.48
2017-12-16T18:20:20.986Z,101190.20
2017-12-16T18:22:24.130Z,101192.48
2017-12-16T18:24:27.130Z,101193.42
2017-12-16T18:26:30.292Z,101192.58
2017-12-16T18:28:33.322Z,101196.12
2017-12-16T18:30:36.460Z,101200.17
2017-12-16T18:32:39.513Z,101204.73
2017-12-16T18:34:42.544Z,101208.78
2017-12-16T18:36:45.576Z,101214.72
2017-12-16T18:38:48.910Z,101208.36
2017-12-16T18:40:52.030Z,101216.89
2017-12-16T18:42:55.061Z,101214.72
2017-12-16T18:44:58.121Z,101221.98
2017-12-16T18:47:01.141Z,101218.35
2017-12-16T18:49:04.162Z,101231.44
2017-12-16T18:51:07.227Z,101231.02
2017-12-16T18:53:10.340Z,101230.17
2017-12-16T18:55:13.360Z,101237.34
2017-12-16T18:57:16.441Z,101231.94
2017-12-16T18:59:19.522Z,101240.47
2017-12-16T19:01:22.696Z,101236.92
2017-12-16T19:03:25.925Z,101235.15
2017-12-16T19:05:28.964Z,101236.08
2017-12-16T19:07:32.001Z,101232.53
2017-12-16T19:09:35.044Z,101238.36
2017-12-16T19:11:38.183Z,101246.46
2017-12-16T19:13:41.286Z,101254.06
2017-12-16T19:15:44.472Z,101250.94
2017-12-16T19:17:47.552Z,101256.42
2017-12-16T19:19:50.744Z,101261.83
2017-12-16T19:21:53.861Z,101262.75
2017-12-16T19:23:56.928Z,101264.64
2017-12-16T19:25:59.970Z,101267.23
2017-12-16T19:28:03.104Z,101265.03
2017-12-16T19:30:06.102Z,101269.50
2017-12-16T19:32:09.156Z,101271.78
2017-12-16T19:34:12.298Z,101279.50
2017-12-16T19:36:15.301Z,101276.38
2017-12-16T19:38:18.505Z,101283.12
2017-12-16T19:40:21.563Z,101281.86
2017-12-16T19:42:24.684Z,101283.21
2017-12-16T19:44:28.106Z,101286.75
2017-12-16T19:46:31.934Z,101287.77
2017-12-16T19:48:35.228Z,101287.27
2017-12-16T19:50:39.432Z,101291.82
2017-12-16T19:52:42.927Z,101294.09
2017-12-16T19:54:46.046Z,101300.52
2017-12-16T19:56:49.198Z,101300.01
2017-12-16T19:58:52.278Z,101298.23
2017-12-16T20:00:55.360Z,101295.11
2017-12-16T20:02:58.411Z,101307.80
2017-12-16T20:05:01.506Z,101297.00
2017-12-16T20:07:04.513Z,101297.92
2017-12-16T20:09:07.552Z,101289.83
2017-12-16T20:11:10.604Z,101293.45
2017-12-16T20:13:13.735Z,101295.23
2017-12-16T20:15:16.841Z,101293.03
2017-12-16T20:17:20.045Z,101295.73
2017-12-16T20:19:23.120Z,101300.29
2017-12-16T20:21:26.427Z,101301.64
2017-12-16T20:23:29.603Z,101303.83
2017-12-16T20:25:32.617Z,101294.37
2017-12-16T20:27:35.670Z,101298.01
2017-12-16T20:29:38.732Z,101296.23
2017-12-16T20:31:41.772Z,101298.52
2017-12-16T20:33:44.817Z,101307.46
2017-12-16T20:35:47.872Z,101310.16
2017-12-16T20:37:50.899Z,101312.02
2017-12-16T20:39:53.951Z,101318.86
2017-12-16T20:41:57.144Z,101314.38
2017-12-16T20:44:00.216Z,101324.26
2017-12-16T20:46:03.268Z,101315.23
2017-12-16T20:48:06.338Z,101318.86
2017-12-16T20:50:09.364Z,101323.33
2017-12-16T20:52:12.501Z,101323.83
2017-12-16T20:54:15.779Z,101318.43
2017-12-16T20:56:18.917Z,101328.39
2017-12-16T20:58:21.968Z,101332.86
2017-12-16T21:00:25.013Z,101339.73
2017-12-16T21:02:28.261Z,101341.89
2017-12-16T21:04:31.328Z,101338.38
2017-12-16T21:06:34.456Z,101346.06
2017-12-16T21:08:37.491Z,101346.56
2017-12-16T21:10:40.523Z,101352.81
2017-12-16T21:12:43.570Z,101347.83
2017-12-16T21:14:46.616Z,101348.77
2017-12-16T21:16:49.669Z,101350.95
2017-12-16T21:18:52.720Z,101351.34
2017-12-16T21:20:55.800Z,101350.11
2017-12-16T21:22:59.024Z,101352.81
2017-12-16T21:25:02.064Z,101356.44
2017-12-16T21:27:05.136Z,101355.59
2017-12-16T21:29:08.209Z,101358.72
2017-12-16T21:31:11.289Z,101361.84
2017-12-16T21:33:14.308Z,101361.84
2017-12-16T21:35:17.360Z,101356.02
2017-12-16T21:37:20.444Z,101357.45
2017-12-16T21:39:23.538Z,101362.77
2017-12-16T21:41:26.595Z,101361.42
2017-12-16T21:43:29.695Z,101367.75
2017-12-16T21:45:32.688Z,101371.72
2017-12-16T21:47:35.836Z,101370.45
2017-12-16T21:49:38.949Z,101372.31
2017-12-16T21:51:41.966Z,101372.73
2017-12-16T21:53:45.069Z,101379.48
2017-12-16T21:55:48.253Z,101379.06
2017-12-16T21:57:51.317Z,101380.91
2017-12-16T21:59:54.376Z,101382.69
2017-12-16T22:01:57.439Z,101377.37
2017-12-16T22:04:00.520Z,101384.12
2017-12-16T22:06:03.732Z,101381.84
2017-12-16T22:08:06.809Z,101386.82
2017-12-16T22:10:10.037Z,101378.72
2017-12-16T22:12:13.061Z,101392.22
2017-12-16T22:14:16.204Z,101387.75
2017-12-16T22:16:19.193Z,101384.97
2017-12-16T22:18:22.249Z,101386.01
2017-12-16T22:20:25.423Z,101387.36
2017-12-16T22:22:28.459Z,101392.22
2017-12-16T22:24:31.551Z,101391.80
2017-12-16T22:26:34.626Z,101394.92
2017-12-16T22:28:37.761Z,101392.77
2017-12-16T22:30:40.773Z,101390.14
2017-12-16T22:32:43.834Z,101395.46
2017-12-16T22:34:46.889Z,101399.09
2017-12-16T22:36:49.940Z,101402.72
2017-12-16T22:38:53.051Z,101403.64
2017-12-16T22:40:56.542Z,101411.75
2017-12-16T22:42:59.567Z,101418.50
2017-12-16T22:45:02.698Z,101424.83
2017-12-16T22:47:05.932Z,101426.60
2017-12-16T22:49:08.972Z,101420.77
2017-12-16T22:51:12.141Z,101429.80
2017-12-16T22:53:15.300Z,101428.45
2017-12-16T22:55:18.366Z,101430.31
2017-12-16T22:57:21.497Z,101430.66
2017-12-16T22:59:24.643Z,101436.14
2017-12-16T23:01:27.831Z,101433.44
2017-12-16T23:03:30.941Z,101436.14
2017-12-16T23:05:34.038Z,101439.77
2017-12-16T23:07:37.140Z,101438.84
2017-12-16T23:09:40.214Z,101431.23
2017-12-16T23:11:43.233Z,101431.66
2017-12-16T23:13:46.337Z,101431.23
2017-12-16T23:15:49.436Z,101428.11
2017-12-16T23:17:52.476Z,101430.81
2017-12-16T23:19:55.598Z,101436.22
2017-12-16T23:21:58.881Z,101437.56
2017-12-16T23:24:01.966Z,101434.86